Rosebud, Missouri
Current Conditions -  °F | °C
As of 8:35 PM on Sunday 21 Dec 2014 (Local Time) from KFYG Reporting Station
Overcast Overcast  
Wind Chill:   Ceiling: 6000
Heat Index:   Visibility: 10mi
Dew Point:   Wind: 9mph
Humidity: 70%   Direction: 140°SE
Pressure: 29.95"   Gusts: NA
Location:  38.39°N, 91.4°W
Report Text: KFYG 220235Z AUTO 14008KT 10SM OVC060 05/00 A2995 RMK AO2
Loading
Personal Weather Stations






























Interactive Weather Map New forecast layout! Learn more

10-Day Weather Forecast

Advertisements
Track Severe Weather on mobile